createdAt,value
2023-07-06T01:11:22.148Z,100480.34
2023-07-06T01:13:53.256Z,100473.28
2023-07-06T01:16:58.545Z,100478.41
2023-07-06T01:19:40.382Z,100471.06
2023-07-06T01:22:26.176Z,100473.72
2023-07-06T01:25:27.161Z,100478.09
2023-07-06T01:28:05.301Z,100474.78
2023-07-06T01:30:38.139Z,100479.13
2023-07-06T01:33:18.948Z,100485.91
2023-07-06T01:35:51.536Z,100483.75
2023-07-06T01:38:18.406Z,100484.50
2023-07-06T01:40:45.104Z,100487.22
2023-07-06T01:43:12.196Z,100488.03
2023-07-06T01:45:39.011Z,100485.06
2023-07-06T01:48:08.643Z,100486.19
2023-07-06T01:50:53.597Z,100485.69
2023-07-06T01:53:32.259Z,100488.41
2023-07-06T01:56:05.417Z,100491.69
2023-07-06T01:58:46.573Z,100487.88
2023-07-06T02:01:18.201Z,100491.69
2023-07-06T02:03:45.519Z,100485.69
2023-07-06T02:06:13.315Z,100493.84
2023-07-06T02:08:43.307Z,100497.63
2023-07-06T02:11:15.413Z,100498.47
2023-07-06T02:13:42.878Z,100497.63
2023-07-06T02:16:11.191Z,100500.34
2023-07-06T02:18:38.068Z,100493.28
2023-07-06T02:21:04.930Z,100496.25
2023-07-06T02:23:31.686Z,100489.22
2023-07-06T02:25:58.707Z,100492.44
2023-07-06T02:28:25.809Z,100495.16
2023-07-06T02:30:55.810Z,100496.00
2023-07-06T02:33:23.157Z,100496.53
2023-07-06T02:35:50.409Z,100496.03
2023-07-06T02:38:19.772Z,100493.28
2023-07-06T02:40:50.771Z,100508.03
2023-07-06T02:43:17.902Z,100494.97
2023-07-06T02:45:49.509Z,100500.47
2023-07-06T02:48:16.552Z,100502.34
2023-07-06T02:50:48.360Z,100499.94
2023-07-06T02:53:16.001Z,100501.03
2023-07-06T02:55:42.756Z,100506.47
2023-07-06T02:58:09.435Z,100500.22
2023-07-06T03:00:36.194Z,100513.03
2023-07-06T03:03:02.895Z,100501.09
2023-07-06T03:05:31.304Z,100509.81
2023-07-06T03:07:58.160Z,100509.81
2023-07-06T03:10:24.975Z,100518.00
2023-07-06T03:12:52.537Z,100516.91
2023-07-06T03:15:19.244Z,100521.31
2023-07-06T03:17:49.986Z,100517.78
2023-07-06T03:20:20.814Z,100526.78
2023-07-06T03:22:49.978Z,100533.88
2023-07-06T03:25:17.097Z,100520.78
2023-07-06T03:27:44.809Z,100524.31
2023-07-06T03:30:13.010Z,100523.47
2023-07-06T03:32:39.982Z,100519.09
2023-07-06T03:35:10.406Z,100525.59
2023-07-06T03:37:43.807Z,100523.97
2023-07-06T03:40:12.534Z,100527.75
2023-07-06T03:42:40.728Z,100531.81
2023-07-06T03:45:09.525Z,100535.34
2023-07-06T03:47:38.847Z,100539.94
2023-07-06T03:50:09.960Z,100535.31
2023-07-06T03:52:40.844Z,100536.94
2023-07-06T03:55:21.210Z,100535.31
2023-07-06T03:58:02.827Z,100538.56
2023-07-06T04:00:31.998Z,100542.38
2023-07-06T04:03:05.578Z,100547.00
2023-07-06T04:05:36.303Z,100545.69
2023-07-06T04:08:06.379Z,100548.97
2023-07-06T04:10:34.990Z,100548.41
2023-07-06T04:13:01.829Z,100547.88
2023-07-06T04:15:28.584Z,100554.41
2023-07-06T04:17:55.476Z,100559.06
2023-07-06T04:20:25.595Z,100555.53
2023-07-06T04:22:58.572Z,100556.91
2023-07-06T04:25:30.999Z,100570.53
2023-07-06T04:28:07.095Z,100565.94
2023-07-06T04:30:36.597Z,100570.03
2023-07-06T04:33:05.519Z,100574.69
2023-07-06T04:35:33.180Z,100566.53
2023-07-06T04:38:03.350Z,100569.22
2023-07-06T04:40:30.054Z,100579.06
2023-07-06T04:42:57.250Z,100576.34
2023-07-06T04:45:27.123Z,100582.09
2023-07-06T04:47:55.515Z,100577.44
2023-07-06T04:50:25.230Z,100580.72
2023-07-06T04:52:57.350Z,100585.91
2023-07-06T04:55:26.877Z,100587.81
2023-07-06T04:57:57.453Z,100582.63
2023-07-06T05:00:26.171Z,100588.91
2023-07-06T05:02:54.402Z,100587.84
2023-07-06T05:05:22.021Z,100590.56
2023-07-06T05:07:48.706Z,100580.47
2023-07-06T05:10:16.780Z,100582.38
2023-07-06T05:12:44.289Z,100589.72
2023-07-06T05:15:11.919Z,100585.91
2023-07-06T05:17:39.891Z,100578.28
2023-07-06T05:20:08.057Z,100582.09
2023-07-06T05:22:41.129Z,100581.00
2023-07-06T05:25:09.307Z,100582.38
2023-07-06T05:27:36.670Z,100585.09
2023-07-06T05:30:04.570Z,100591.66
2023-07-06T05:32:31.391Z,100587.84
2023-07-06T05:34:58.968Z,100594.38
2023-07-06T05:37:35.332Z,100601.41
2023-07-06T05:40:05.826Z,100598.72
2023-07-06T05:42:33.024Z,100603.31
2023-07-06T05:44:59.769Z,100599.78
2023-07-06T05:47:28.350Z,100601.44
2023-07-06T05:49:55.501Z,100611.22
2023-07-06T05:52:22.568Z,100607.69
2023-07-06T05:54:49.452Z,100615.03
2023-07-06T05:57:18.779Z,100612.03
2023-07-06T05:59:46.835Z,100625.91
2023-07-06T06:02:20.068Z,100623.75
2023-07-06T06:04:48.297Z,100624.81
2023-07-06T06:07:15.553Z,100627.00
2023-07-06T06:09:43.187Z,100634.88
2023-07-06T06:12:12.017Z,100633.50
2023-07-06T06:14:39.225Z,100639.50
2023-07-06T06:17:06.390Z,100640.84
2023-07-06T06:19:38.873Z,100645.22
2023-07-06T06:22:07.288Z,100652.56
2023-07-06T06:24:34.238Z,100650.91
2023-07-06T06:27:01.633Z,100652.56
2023-07-06T06:29:28.688Z,100655.84
2023-07-06T06:31:55.964Z,100656.94
2023-07-06T06:34:24.460Z,100651.78
2023-07-06T06:36:51.210Z,100659.13
2023-07-06T06:39:17.890Z,100657.22
2023-07-06T06:41:45.448Z,100669.50
2023-07-06T06:44:15.799Z,100673.06
2023-07-06T06:46:42.660Z,100676.63
2023-07-06T06:49:09.382Z,100685.34
2023-07-06T06:51:36.194Z,100681.00
2023-07-06T06:54:02.942Z,100684.81
2023-07-06T06:56:30.425Z,100685.91
2023-07-06T06:58:58.107Z,100685.41
2023-07-06T07:01:25.055Z,100694.69
2023-07-06T07:03:52.127Z,100691.41
2023-07-06T07:06:18.964Z,100693.56
2023-07-06T07:08:50.683Z,100695.22
2023-07-06T07:11:24.129Z,100700.13
2023-07-06T07:13:53.417Z,100696.59
2023-07-06T07:16:20.827Z,100688.13
2023-07-06T07:18:49.643Z,100693.59
2023-07-06T07:21:17.498Z,100701.75
2023-07-06T07:23:48.837Z,100694.69
2023-07-06T07:26:19.156Z,100690.88
2023-07-06T07:28:48.986Z,100684.06
2023-07-06T07:31:19.213Z,100684.88
2023-07-06T07:33:50.688Z,100688.13
2023-07-06T07:36:19.112Z,100680.22
2023-07-06T07:38:47.446Z,100691.66
2023-07-06T07:41:14.947Z,100688.63
2023-07-06T07:43:44.203Z,100685.38
2023-07-06T07:46:12.675Z,100694.13
2023-07-06T07:48:46.480Z,100690.81
2023-07-06T07:51:16.065Z,100687.50
2023-07-06T07:53:45.843Z,100695.69
2023-07-06T07:56:17.321Z,100691.56
2023-07-06T07:58:48.745Z,100695.09
2023-07-06T08:01:22.189Z,100690.41
2023-07-06T08:03:50.282Z,100685.78
2023-07-06T08:06:20.362Z,100684.66
2023-07-06T08:08:49.337Z,100691.22
2023-07-06T08:11:17.744Z,100701.31
2023-07-06T08:13:51.829Z,100695.53
2023-07-06T08:16:21.779Z,100689.81
2023-07-06T08:18:50.268Z,100696.69
2023-07-06T08:21:44.524Z,100699.09
2023-07-06T08:24:06.929Z,100688.97
2023-07-06T08:26:33.704Z,100686.22
2023-07-06T08:29:00.286Z,100688.38
2023-07-06T08:31:28.442Z,100686.16
2023-07-06T08:33:55.334Z,100695.69
2023-07-06T08:36:22.262Z,100699.19
2023-07-06T08:38:49.126Z,100695.34
2023-07-06T08:41:23.594Z,100697.44
2023-07-06T08:43:51.574Z,100696.63
2023-07-06T08:46:19.636Z,100703.72
2023-07-06T08:48:46.432Z,100712.72
2023-07-06T08:51:24.502Z,100711.31
2023-07-06T08:53:56.173Z,100703.91
2023-07-06T08:56:26.018Z,100703.31
2023-07-06T08:58:53.747Z,100711.78
2023-07-06T09:01:24.004Z,100710.91
2023-07-06T09:03:57.037Z,100710.41
2023-07-06T09:06:27.526Z,100712.25
2023-07-06T09:08:57.075Z,100721.22
2023-07-06T09:11:26.527Z,100708.56
2023-07-06T09:13:58.338Z,100711.22
2023-07-06T09:16:26.491Z,100709.78
2023-07-06T09:18:54.460Z,100704.00
2023-07-06T09:21:27.088Z,100701.66
2023-07-06T09:23:54.488Z,100696.97
2023-07-06T09:26:33.754Z,100705.34
2023-07-06T09:29:26.596Z,100710.66
2023-07-06T09:32:18.126Z,100699.06
2023-07-06T09:34:48.454Z,100701.25
2023-07-06T09:37:16.321Z,100702.19
2023-07-06T09:39:56.768Z,100697.41
2023-07-06T09:42:24.160Z,100695.88
2023-07-06T09:44:51.846Z,100707.78
2023-07-06T09:47:18.896Z,100701.03
2023-07-06T09:49:53.461Z,100708.75
2023-07-06T09:52:21.064Z,100699.22
2023-07-06T09:55:35.296Z,100703.09
2023-07-06T09:58:02.705Z,100703.59
2023-07-06T10:00:41.220Z,100698.56
2023-07-06T10:03:35.262Z,100691.28
2023-07-06T10:06:23.756Z,100698.03
2023-07-06T10:09:18.192Z,100704.72
2023-07-06T10:11:53.277Z,100702.34
2023-07-06T10:14:46.888Z,100703.38
2023-07-06T10:17:32.504Z,100716.06
2023-07-06T10:20:37.629Z,100706.50
2023-07-06T10:23:16.404Z,100700.78
2023-07-06T10:26:23.024Z,100701.81
2023-07-06T10:28:56.580Z,100707.50
2023-07-06T10:31:32.734Z,100707.50
2023-07-06T10:34:08.614Z,100710.78
2023-07-06T10:36:37.183Z,100704.28
2023-07-06T10:39:34.834Z,100700.19
2023-07-06T10:42:11.360Z,100701.19
2023-07-06T10:44:42.986Z,100693.25
2023-07-06T10:47:31.318Z,100699.78
2023-07-06T10:50:09.248Z,100695.50
2023-07-06T10:52:40.806Z,100694.25
2023-07-06T10:55:36.610Z,100698.69
2023-07-06T10:58:30.786Z,100697.22
2023-07-06T11:01:00.110Z,100699.81
2023-07-06T11:03:30.407Z,100707.38
2023-07-06T11:06:07.941Z,100701.59
2023-07-06T11:09:11.380Z,100707.88
2023-07-06T11:11:51.485Z,100712.78
2023-07-06T11:14:34.395Z,100711.25
2023-07-06T11:17:24.627Z,100713.31
2023-07-06T11:19:57.763Z,100708.63
2023-07-06T11:22:26.417Z,100702.19
2023-07-06T11:25:01.251Z,100702.84
2023-07-06T11:27:31.634Z,100708.38
2023-07-06T11:30:15.506Z,100708.72
2023-07-06T11:32:44.879Z,100712.69
2023-07-06T11:35:31.380Z,100726.53
2023-07-06T11:38:13.896Z,100715.75
2023-07-06T11:41:12.797Z,100713.22
2023-07-06T11:44:18.065Z,100719.72
2023-07-06T11:46:59.763Z,100714.34
2023-07-06T11:49:36.024Z,100719.00
2023-07-06T11:52:06.826Z,100720.16
2023-07-06T11:54:52.789Z,100717.84
2023-07-06T11:57:28.480Z,100724.34
2023-07-06T12:00:19.441Z,100736.59
2023-07-06T12:03:07.508Z,100733.16
2023-07-06T12:05:37.231Z,100724.63
2023-07-06T12:08:16.612Z,100735.09
2023-07-06T12:10:51.856Z,100730.72
2023-07-06T12:13:26.704Z,100720.00
2023-07-06T12:16:28.901Z,100728.41
2023-07-06T12:19:06.492Z,100731.78
2023-07-06T12:21:40.640Z,100728.53
2023-07-06T12:24:13.103Z,100728.78
2023-07-06T12:26:48.317Z,100725.59
2023-07-06T12:29:19.218Z,100728.78
2023-07-06T12:31:47.185Z,100730.09
2023-07-06T12:34:19.447Z,100722.50
2023-07-06T12:36:51.191Z,100726.22
2023-07-06T12:39:19.838Z,100730.41
2023-07-06T12:41:48.188Z,100721.63
2023-07-06T12:44:19.577Z,100730.91
2023-07-06T12:46:54.801Z,100728.66
2023-07-06T12:49:24.288Z,100726.16
2023-07-06T12:51:57.110Z,100736.84
2023-07-06T12:54:28.310Z,100740.13
2023-07-06T12:57:00.412Z,100735.47
2023-07-06T12:59:33.954Z,100735.84
2023-07-06T13:02:14.375Z,100727.78
2023-07-06T13:04:46.971Z,100733.28
2023-07-06T13:07:16.620Z,100730.31
2023-07-06T13:09:43.280Z,100735.47
2023-07-06T13:12:19.235Z,100734.16
2023-07-06T13:14:48.204Z,100730.91
2023-07-06T13:17:17.575Z,100733.16
2023-07-06T13:19:46.223Z,100728.25
2023-07-06T13:22:14.664Z,100724.38
2023-07-06T13:24:42.175Z,100729.28
2023-07-06T13:27:16.822Z,100718.84
2023-07-06T13:29:44.032Z,100719.31
2023-07-06T13:32:19.173Z,100709.84
2023-07-06T13:34:51.303Z,100718.88
2023-07-06T13:37:30.113Z,100722.22
2023-07-06T13:40:01.631Z,100719.94
2023-07-06T13:42:29.586Z,100719.97
2023-07-06T13:44:59.302Z,100723.25
2023-07-06T13:47:27.626Z,100712.16
2023-07-06T13:49:57.357Z,100722.06
2023-07-06T13:52:24.122Z,100723.38
2023-07-06T13:54:50.740Z,100718.06
2023-07-06T13:57:17.456Z,100721.16
2023-07-06T13:59:44.042Z,100717.75
2023-07-06T14:02:14.577Z,100718.91
2023-07-06T14:04:42.864Z,100715.47
2023-07-06T14:07:10.605Z,100723.09
2023-07-06T14:09:37.414Z,100719.03
2023-07-06T14:12:06.714Z,100720.63
2023-07-06T14:14:33.891Z,100717.50
2023-07-06T14:17:00.746Z,100719.94
2023-07-06T14:19:27.550Z,100717.28
2023-07-06T14:21:55.132Z,100721.00
2023-07-06T14:24:23.209Z,100717.25
2023-07-06T14:26:50.218Z,100726.16
2023-07-06T14:29:17.550Z,100720.63
2023-07-06T14:31:49.520Z,100726.81
2023-07-06T14:34:18.220Z,100726.81
2023-07-06T14:36:45.460Z,100716.91
2023-07-06T14:39:12.189Z,100718.03
2023-07-06T14:41:38.948Z,100729.06
2023-07-06T14:44:05.932Z,100726.63
2023-07-06T14:46:32.894Z,100725.81
2023-07-06T14:48:59.853Z,100724.19
2023-07-06T14:51:26.900Z,100723.06
2023-07-06T14:53:53.804Z,100736.72
2023-07-06T14:56:22.515Z,100721.16
2023-07-06T14:58:50.179Z,100733.66
2023-07-06T15:01:17.090Z,100734.03
2023-07-06T15:03:43.889Z,100731.75
2023-07-06T15:06:12.083Z,100731.94
2023-07-06T15:08:39.002Z,100738.75
2023-07-06T15:11:05.737Z,100729.84
2023-07-06T15:13:32.581Z,100726.78
2023-07-06T15:15:59.958Z,100726.63
2023-07-06T15:18:27.130Z,100724.53
2023-07-06T15:21:08.303Z,100725.69
2023-07-06T15:23:35.177Z,100723.09
2023-07-06T15:26:01.935Z,100725.22
2023-07-06T15:28:28.631Z,100719.38
2023-07-06T15:30:55.389Z,100716.28
2023-07-06T15:33:22.221Z,100717.94
2023-07-06T15:35:48.910Z,100711.75
2023-07-06T15:38:15.728Z,100707.19
2023-07-06T15:40:46.993Z,100712.44
2023-07-06T15:43:14.304Z,100716.31
2023-07-06T15:45:43.392Z,100708.56
2023-07-06T15:48:10.511Z,100703.03
2023-07-06T15:50:38.582Z,100708.03
2023-07-06T15:53:06.913Z,100699.56
2023-07-06T15:55:34.087Z,100706.06
2023-07-06T15:58:02.195Z,100702.97
2023-07-06T16:00:32.710Z,100701.84
2023-07-06T16:03:00.893Z,100704.09
2023-07-06T16:05:28.146Z,100709.13
2023-07-06T16:07:55.333Z,100700.03
2023-07-06T16:10:22.067Z,100703.91
2023-07-06T16:12:48.946Z,100698.25
2023-07-06T16:15:15.771Z,100701.31
2023-07-06T16:17:43.340Z,100696.63
2023-07-06T16:20:10.639Z,100698.25
2023-07-06T16:22:37.429Z,100695.16
2023-07-06T16:25:04.301Z,100702.63
2023-07-06T16:27:31.345Z,100698.09
2023-07-06T16:29:58.054Z,100702.13
2023-07-06T16:32:24.766Z,100704.53
2023-07-06T16:34:51.488Z,100698.66
2023-07-06T16:37:18.147Z,100705.44
2023-07-06T16:39:44.836Z,100701.53
2023-07-06T16:42:11.756Z,100701.66
2023-07-06T16:44:38.534Z,100703.44
2023-07-06T16:47:05.340Z,100711.53
2023-07-06T16:49:32.047Z,100707.31
2023-07-06T16:51:58.728Z,100709.38
2023-07-06T16:54:25.419Z,100713.09
2023-07-06T16:56:52.317Z,100712.09
2023-07-06T16:59:19.083Z,100712.75
2023-07-06T17:01:48.700Z,100711.72
2023-07-06T17:04:15.877Z,100706.84
2023-07-06T17:06:42.711Z,100717.06
2023-07-06T17:09:09.464Z,100712.34
2023-07-06T17:11:36.166Z,100708.47
2023-07-06T17:14:03.227Z,100712.03
2023-07-06T17:16:30.298Z,100717.22
2023-07-06T17:18:57.060Z,100713.34
2023-07-06T17:21:23.787Z,100714.97
2023-07-06T17:23:51.889Z,100712.22
2023-07-06T17:26:18.607Z,100718.06
2023-07-06T17:28:45.332Z,100721.94
2023-07-06T17:31:15.242Z,100718.38
2023-07-06T17:33:42.237Z,100720.16
2023-07-06T17:36:10.396Z,100724.63
2023-07-06T17:38:37.866Z,100723.31
2023-07-06T17:41:07.167Z,100718.94
2023-07-06T17:43:34.614Z,100717.09
2023-07-06T17:46:01.716Z,100724.88
2023-07-06T17:48:29.249Z,100728.75
2023-07-06T17:51:03.326Z,100730.28
2023-07-06T17:53:30.858Z,100725.22
2023-07-06T17:55:58.623Z,100723.91
2023-07-06T17:58:26.135Z,100741.53
2023-07-06T18:00:54.414Z,100737.16
2023-07-06T18:03:22.975Z,100749.63
2023-07-06T18:05:50.629Z,100743.09
2023-07-06T18:08:18.091Z,100746.19
2023-07-06T18:10:45.300Z,100752.31
2023-07-06T18:13:12.177Z,100750.50
2023-07-06T18:15:40.205Z,100749.19
2023-07-06T18:18:07.109Z,100749.28
2023-07-06T18:20:33.896Z,100735.66
2023-07-06T18:23:00.978Z,100742.91
2023-07-06T18:25:28.198Z,100744.97
2023-07-06T18:27:55.396Z,100744.28
2023-07-06T18:30:22.629Z,100748.75
2023-07-06T18:32:49.908Z,100746.91
2023-07-06T18:35:16.772Z,100747.88
2023-07-06T18:37:43.464Z,100751.22
2023-07-06T18:40:10.584Z,100748.59
2023-07-06T18:42:37.286Z,100747.59
2023-07-06T18:45:07.948Z,100755.84
2023-07-06T18:47:35.936Z,100760.94
2023-07-06T18:50:04.042Z,100760.25
2023-07-06T18:52:33.354Z,100765.06
2023-07-06T19:51:52.118Z,100836.63
2023-07-06T19:54:18.824Z,100842.25
2023-07-06T19:56:45.495Z,100836.06
2023-07-06T19:59:12.166Z,100834.28
2023-07-06T20:01:40.001Z,100851.38
2023-07-06T20:04:11.371Z,100846.00
2023-07-06T20:06:40.410Z,100848.81
2023-07-06T20:09:07.889Z,100854.13
2023-07-06T20:11:34.821Z,100851.19
2023-07-06T20:14:02.078Z,100841.97
2023-07-06T20:16:28.969Z,100850.28
2023-07-06T20:18:55.701Z,100860.22
2023-07-06T20:21:22.392Z,100855.66
2023-07-06T20:23:49.135Z,100860.38
2023-07-06T20:26:15.846Z,100862.09
2023-07-06T20:28:42.522Z,100873.09
2023-07-06T20:31:09.349Z,100865.25
2023-07-06T20:33:36.071Z,100866.72
2023-07-06T20:36:07.424Z,100873.88
2023-07-06T20:38:34.974Z,100879.13
2023-07-06T20:41:01.957Z,100880.78
2023-07-06T20:43:29.135Z,100876.47
2023-07-06T20:45:57.096Z,100875.72
2023-07-06T20:48:24.082Z,100884.75
2023-07-06T20:50:52.483Z,100888.91
2023-07-06T20:53:19.362Z,100893.28
2023-07-06T20:55:46.104Z,100891.66
2023-07-06T20:58:12.806Z,100891.94
2023-07-06T21:00:41.511Z,100894.94
2023-07-06T21:03:09.858Z,100891.94
2023-07-06T21:05:39.216Z,100903.69
2023-07-06T21:08:06.188Z,100908.06
2023-07-06T21:10:32.967Z,100902.03
2023-07-06T21:13:00.466Z,100914.06
2023-07-06T21:15:27.593Z,100918.47
2023-07-06T21:17:54.476Z,100909.97
2023-07-06T21:20:21.241Z,100916.53
2023-07-06T21:22:47.911Z,100918.41
2023-07-06T21:25:14.807Z,100917.03
2023-07-06T21:27:41.468Z,100921.38
2023-07-06T21:30:08.578Z,100923.84
2023-07-06T21:32:35.446Z,100925.44
2023-07-06T21:35:03.689Z,100934.72
2023-07-06T21:37:30.372Z,100924.84
2023-07-06T21:39:57.087Z,100928.66
2023-07-06T21:42:23.897Z,100939.06
2023-07-06T21:44:50.601Z,100932.22
2023-07-06T21:47:21.174Z,100931.38
2023-07-06T21:49:47.912Z,100929.47
2023-07-06T21:52:14.623Z,100932.75
2023-07-06T21:54:41.292Z,100928.38
2023-07-06T21:57:08.072Z,100930.81
2023-07-06T21:59:34.839Z,100932.47
2023-07-06T22:02:01.553Z,100933.31
2023-07-06T22:04:29.440Z,100931.66
2023-07-06T22:06:56.191Z,100933.31
2023-07-06T22:09:23.255Z,100928.66
2023-07-06T22:11:50.078Z,100937.94
2023-07-06T22:14:16.871Z,100932.47
2023-07-06T22:16:43.559Z,100936.28
2023-07-06T22:19:10.291Z,100937.41
2023-07-06T22:21:37.078Z,100936.84
2023-07-06T22:24:05.178Z,100928.09
2023-07-06T22:26:31.976Z,100937.94
2023-07-06T22:28:59.935Z,100937.41
2023-07-06T22:31:27.066Z,100937.69
2023-07-06T22:33:53.788Z,100937.97
2023-07-06T22:36:20.491Z,100945.63
2023-07-06T22:38:48.391Z,100939.59
2023-07-06T22:41:16.491Z,100946.19
2023-07-06T22:43:43.297Z,100944.56
2023-07-06T22:46:10.309Z,100952.19
2023-07-06T22:48:36.969Z,100945.66
2023-07-06T22:51:03.671Z,100956.59
2023-07-06T22:53:31.357Z,100953.63
2023-07-06T22:55:59.040Z,100948.41
2023-07-06T22:58:25.866Z,100956.06
2023-07-06T23:00:52.671Z,100950.88
2023-07-06T23:03:21.297Z,100955.81
2023-07-06T23:05:48.095Z,100951.72
2023-07-06T23:08:15.858Z,100949.53
2023-07-06T23:10:45.406Z,100953.91
2023-07-06T23:13:14.443Z,100951.19
2023-07-06T23:15:44.873Z,100950.63
2023-07-06T23:18:11.994Z,100947.38
2023-07-06T23:20:40.007Z,100946.81
2023-07-06T23:23:07.318Z,100956.09
2023-07-06T23:25:35.597Z,100951.22
2023-07-06T23:28:05.953Z,100960.50
2023-07-06T23:30:37.009Z,100959.97
2023-07-06T23:33:10.511Z,100961.34
2023-07-06T23:35:43.828Z,100969.81
2023-07-06T23:38:13.771Z,100966.00
2023-07-06T23:40:42.036Z,100972.56
2023-07-06T23:43:09.841Z,100966.53
2023-07-06T23:45:36.672Z,100963.28
2023-07-06T23:48:05.810Z,100967.09
2023-07-06T23:50:32.792Z,100963.00
2023-07-06T23:52:59.567Z,100966.28
2023-07-06T23:55:26.424Z,100973.91
2023-07-06T23:57:53.427Z,100968.69
